Time;durP1;ratioP1;P1;durP2;ratioP2;P2;SDS_P1;SDS_P2;PMS_P1;PMS_P2;Temp;Humidity;BMP_temperature;BMP_pressure;BME280_temperature;BME280_humidity;BME280_pressure;Samples;Min_cycle;Max_cycle;Signal;HPM_P1;HPM_P2
2023/08/13 00:02:20;;;;;;;0.10;0.10;;;16.50;99.90;;;;;;5063695;28;20044;-76
2023/08/13 00:04:46;;;;;;;0.20;0.20;;;16.70;99.90;;;;;;5065764;28;20727;-76
2023/08/13 00:07:13;;;;;;;2.20;2.10;;;16.80;99.90;;;;;;5063999;28;20059;-76
2023/08/13 00:09:42;;;;;;;0.13;0.13;;;16.60;99.90;;;;;;5064025;28;20080;-79
2023/08/13 00:12:08;;;;;;;0.40;0.40;;;16.40;99.90;;;;;;5063115;28;20021;-77
2023/08/13 00:14:35;;;;;;;1.80;1.70;;;16.80;99.90;;;;;;5061621;28;20115;-78
2023/08/13 00:17:02;;;;;;;0.20;0.20;;;16.20;99.90;;;;;;5061705;28;20498;-79
2023/08/13 00:19:28;;;;;;;0.10;0.10;;;16.80;99.90;;;;;;5063084;28;20017;-78
2023/08/13 00:21:55;;;;;;;1.15;1.15;;;16.80;99.90;;;;;;5061393;28;20024;-78
2023/08/13 00:24:21;;;;;;;0.82;0.82;;;16.50;99.90;;;;;;5061306;28;20225;-78
2023/08/13 00:26:48;;;;;;;0.30;0.30;;;16.70;99.90;;;;;;5063063;28;20056;-79
2023/08/13 00:29:13;;;;;;;0.10;0.10;;;16.70;99.90;;;;;;5063117;28;20025;-75
2023/08/13 00:31:41;;;;;;;0.20;0.20;;;16.80;99.90;;;;;;5064013;28;20036;-75
2023/08/13 00:34:07;;;;;;;0.20;0.20;;;16.00;99.90;;;;;;5043231;28;20039;-75
2023/08/13 00:36:33;;;;;;;0.10;0.10;;;16.30;99.90;;;;;;5043396;28;20344;-79
2023/08/13 00:38:59;;;;;;;0.10;0.10;;;16.10;99.90;;;;;;5061456;28;20316;-75
2023/08/13 00:41:25;;;;;;;0.10;0.10;;;16.20;99.90;;;;;;5062189;28;20033;-76
2023/08/13 00:43:51;;;;;;;0.40;0.40;;;16.30;99.90;;;;;;5062562;28;20535;-77
2023/08/13 00:46:18;;;;;;;0.20;0.20;;;16.60;99.90;;;;;;5062085;28;20028;-78
2023/08/13 00:48:45;;;;;;;0.10;0.10;;;16.30;99.90;;;;;;5044382;28;20025;-76
2023/08/13 00:51:12;;;;;;;0.10;0.10;;;15.00;99.90;;;;;;5062195;28;20518;-78
2023/08/13 00:53:47;;;;;;;0.35;0.35;;;16.30;99.90;;;;;;5062126;28;20447;-76
2023/08/13 00:56:15;;;;;;;0.10;0.10;;;16.30;99.90;;;;;;5061908;28;20222;-76
2023/08/13 00:58:42;;;;;;;0.10;0.10;;;16.20;99.90;;;;;;5062412;28;20040;-77
2023/08/13 01:01:09;;;;;;;0.10;0.10;;;15.90;99.90;;;;;;5061225;28;20349;-76
2023/08/13 01:03:38;;;;;;;0.20;0.20;;;15.60;99.90;;;;;;5061578;28;20029;-78
2023/08/13 01:06:16;;;;;;;0.10;0.10;;;15.40;99.90;;;;;;5061927;28;20286;-78
2023/08/13 01:08:55;;;;;;;0.10;0.10;;;15.50;99.90;;;;;;5062206;28;20130;-78
2023/08/13 01:11:41;;;;;;;0.10;0.10;;;16.30;99.90;;;;;;5061242;28;20202;-82
2023/08/13 01:14:38;;;;;;;0.13;0.13;;;16.40;99.90;;;;;;5043680;28;20103;-77
2023/08/13 01:17:08;;;;;;;0.20;0.20;;;16.30;99.90;;;;;;5061813;28;20751;-78
2023/08/13 01:19:34;;;;;;;0.50;0.50;;;15.60;99.90;;;;;;5061972;28;20490;-78
2023/08/13 01:22:00;;;;;;;0.10;0.10;;;;;;;;;;5061975;28;20567;-79
2023/08/13 01:24:26;;;;;;;0.10;0.10;;;15.00;99.90;;;;;;5061460;28;20505;-81
2023/08/13 01:27:16;;;;;;;0.10;0.10;;;15.40;99.90;;;;;;5064121;28;20028;-78
2023/08/13 01:29:44;;;;;;;0.10;0.10;;;16.00;99.90;;;;;;5061085;28;20239;-80
2023/08/13 01:32:13;;;;;;;0.10;0.10;;;16.10;99.90;;;;;;5062010;28;20085;-80
2023/08/13 01:34:41;;;;;;;0.10;0.10;;;14.90;99.90;;;;;;5061072;28;20017;-80
2023/08/13 01:37:08;;;;;;;0.20;0.20;;;15.70;99.90;;;;;;5062143;28;20081;-85
2023/08/13 01:39:34;;;;;;;0.20;0.20;;;16.40;99.90;;;;;;5061737;28;20055;-80
2023/08/13 01:42:00;;;;;;;0.10;0.10;;;16.10;99.90;;;;;;5060720;28;20617;-83
2023/08/13 01:44:26;;;;;;;0.20;0.20;;;15.70;99.90;;;;;;5060842;28;20028;-77
2023/08/13 01:46:52;;;;;;;0.10;0.10;;;15.50;99.90;;;;;;5060609;28;20037;-79
2023/08/13 01:49:19;;;;;;;0.55;0.55;;;;;;;;;;5063478;28;20213;-78
2023/08/13 01:51:45;;;;;;;0.10;0.10;;;15.10;99.90;;;;;;5063057;28;20032;-77
2023/08/13 01:54:11;;;;;;;0.10;0.10;;;15.30;99.90;;;;;;5060786;28;20214;-78
2023/08/13 01:56:37;;;;;;;0.10;0.10;;;14.90;99.90;;;;;;5061261;28;20186;-80
2023/08/13 01:59:04;;;;;;;0.20;0.20;;;15.10;99.90;;;;;;5060737;28;20016;-77
2023/08/13 02:01:29;;;;;;;0.10;0.10;;;14.20;99.90;;;;;;5061191;28;20448;-81
2023/08/13 02:03:56;;;;;;;0.77;0.73;;;14.80;99.90;;;;;;5060568;28;20084;-78
2023/08/13 02:06:22;;;;;;;0.10;0.10;;;15.10;99.90;;;;;;5064258;28;20491;-78
2023/08/13 02:08:49;;;;;;;0.10;0.10;;;14.40;99.90;;;;;;5065686;28;20440;-79
2023/08/13 02:11:15;;;;;;;1.50;1.48;;;14.90;99.90;;;;;;5046334;28;20032;-77
2023/08/13 02:13:41;;;;;;;0.20;0.20;;;14.90;99.90;;;;;;5061487;28;20411;-78
2023/08/13 02:16:08;;;;;;;0.10;0.10;;;15.40;99.90;;;;;;5061309;28;20017;-77
2023/08/13 02:18:34;;;;;;;0.10;0.10;;;15.30;99.90;;;;;;5061771;28;20035;-77
2023/08/13 02:21:01;;;;;;;0.20;0.20;;;15.50;99.90;;;;;;5061660;28;20314;-77
2023/08/13 02:23:27;;;;;;;0.30;0.30;;;;;;;;;;5043237;28;20017;-77
2023/08/13 02:25:54;;;;;;;0.10;0.10;;;15.80;99.90;;;;;;5060633;28;20040;-80
2023/08/13 02:28:20;;;;;;;0.20;0.20;;;16.30;99.90;;;;;;5061288;28;20290;-77
2023/08/13 02:30:50;;;;;;;0.10;0.10;;;14.60;99.90;;;;;;5061638;28;20225;-77
2023/08/13 02:33:17;;;;;;;0.10;0.10;;;16.00;99.90;;;;;;5062345;28;20222;-78
2023/08/13 02:35:43;;;;;;;0.30;0.30;;;15.80;99.90;;;;;;5061001;28;20657;-77
2023/08/13 02:38:09;;;;;;;0.10;0.10;;;15.40;99.90;;;;;;5065777;28;20101;-77
2023/08/13 02:40:35;;;;;;;0.10;0.10;;;15.80;99.90;;;;;;5045896;28;20130;-77
2023/08/13 02:43:03;;;;;;;0.10;0.10;;;15.50;99.90;;;;;;5064440;28;20021;-77
2023/08/13 02:45:29;;;;;;;0.10;0.10;;;15.40;99.90;;;;;;5043262;28;20127;-77
2023/08/13 02:47:56;;;;;;;0.10;0.10;;;15.20;99.90;;;;;;5060857;28;20045;-77
2023/08/13 02:50:23;;;;;;;0.10;0.10;;;14.90;99.90;;;;;;5043457;28;20033;-78
2023/08/13 02:52:50;;;;;;;0.10;0.10;;;12.30;99.90;;;;;;5059280;28;20446;-77
2023/08/13 02:55:16;;;;;;;0.35;0.35;;;17.80;99.90;;;;;;5060686;28;20422;-77
2023/08/13 02:57:42;;;;;;;0.10;0.10;;;13.90;99.90;;;;;;5061282;28;20020;-77
2023/08/13 03:00:10;;;;;;;0.10;0.10;;;17.10;99.90;;;;;;5061731;28;20124;-78
2023/08/13 03:02:36;;;;;;;0.20;0.20;;;16.40;99.90;;;;;;5046205;28;20072;-79
2023/08/13 03:05:03;;;;;;;0.10;0.10;;;16.30;99.90;;;;;;5064307;28;20031;-78
2023/08/13 03:07:33;;;;;;;0.10;0.10;;;15.80;99.90;;;;;;5065593;28;20321;-77
2023/08/13 03:10:00;;;;;;;0.20;0.20;;;13.70;99.90;;;;;;5043014;28;20033;-78
2023/08/13 03:12:26;;;;;;;0.10;0.10;;;15.20;99.90;;;;;;5061264;28;20729;-77
2023/08/13 03:14:52;;;;;;;0.10;0.10;;;15.70;99.90;;;;;;5060413;28;20023;-75
2023/08/13 03:17:18;;;;;;;0.10;0.10;;;18.70;99.90;;;;;;5042765;28;20021;-79
2023/08/13 03:19:45;;;;;;;0.28;0.28;;;16.50;99.90;;;;;;5061007;28;20292;-81
2023/08/13 03:22:12;;;;;;;0.88;0.88;;;16.80;99.90;;;;;;5062266;28;20382;-78
2023/08/13 03:24:38;;;;;;;0.17;0.17;;;16.50;99.90;;;;;;5060736;28;20321;-78
2023/08/13 03:27:05;;;;;;;0.10;0.10;;;16.20;99.90;;;;;;5060919;28;20601;-77
2023/08/13 03:29:31;;;;;;;0.10;0.10;;;16.80;99.90;;;;;;5041967;28;20017;-77
2023/08/13 03:31:59;;;;;;;0.13;0.13;;;16.60;99.90;;;;;;5042248;28;20025;-78
2023/08/13 03:34:25;;;;;;;0.10;0.10;;;16.80;99.90;;;;;;5063367;28;20027;-75
2023/08/13 03:36:52;;;;;;;0.20;0.20;;;16.30;99.90;;;;;;5061327;28;20017;-77
2023/08/13 03:39:19;;;;;;;0.10;0.10;;;16.30;99.90;;;;;;5060380;28;20028;-77
2023/08/13 03:41:46;;;;;;;0.10;0.10;;;15.70;99.90;;;;;;5061355;28;20024;-78
2023/08/13 03:44:12;;;;;;;0.10;0.10;;;15.80;99.90;;;;;;5060614;28;20233;-77
2023/08/13 03:46:39;;;;;;;0.13;0.13;;;15.60;99.90;;;;;;5043024;28;20029;-76
2023/08/13 03:49:06;;;;;;;0.30;0.30;;;15.80;99.90;;;;;;5042911;28;20032;-75
2023/08/13 03:51:33;;;;;;;0.20;0.20;;;15.40;99.90;;;;;;5063615;28;20407;-75
2023/08/13 03:54:00;;;;;;;0.20;0.20;;;16.50;99.90;;;;;;5046627;28;20017;-75
2023/08/13 03:56:27;;;;;;;0.10;0.10;;;15.30;99.90;;;;;;5060438;28;20028;-75
2023/08/13 03:58:54;;;;;;;0.10;0.10;;;16.50;99.90;;;;;;5043079;28;20265;-75
2023/08/13 04:01:21;;;;;;;0.10;0.10;;;16.80;99.90;;;;;;5042713;28;20048;-75
2023/08/13 04:03:48;;;;;;;0.10;0.10;;;16.10;99.90;;;;;;5062977;28;20097;-78
2023/08/13 04:06:14;;;;;;;0.10;0.10;;;17.30;99.90;;;;;;5046272;28;20143;-78
2023/08/13 04:08:41;;;;;;;0.10;0.10;;;14.80;99.90;;;;;;5063994;28;20009;-78
2023/08/13 04:11:07;;;;;;;0.15;0.15;;;17.40;99.90;;;;;;5063850;28;20560;-75
2023/08/13 04:13:34;;;;;;;0.10;0.10;;;17.30;99.90;;;;;;5046242;28;20016;-78
2023/08/13 04:16:01;;;;;;;0.30;0.30;;;16.50;99.90;;;;;;5068878;28;20035;-75
2023/08/13 04:18:28;;;;;;;0.10;0.10;;;17.20;99.90;;;;;;5063841;28;20040;-76
2023/08/13 04:20:54;;;;;;;0.40;0.40;;;17.40;99.90;;;;;;5064303;28;20281;-75
2023/08/13 04:23:21;;;;;;;0.15;0.15;;;17.40;99.90;;;;;;5065335;28;20425;-75
2023/08/13 04:25:49;;;;;;;11.00;2.72;;;15.90;99.90;;;;;;5064426;28;20266;-75
2023/08/13 04:28:15;;;;;;;0.20;0.20;;;16.90;99.90;;;;;;5063496;28;20020;-78
2023/08/13 04:30:41;;;;;;;0.10;0.10;;;17.00;99.90;;;;;;5063704;28;20020;-75
2023/08/13 04:33:08;;;;;;;0.22;0.22;;;16.60;99.90;;;;;;5063701;28;20028;-75
2023/08/13 04:35:37;;;;;;;0.10;0.10;;;16.30;99.90;;;;;;5063541;28;20047;-75
2023/08/13 04:38:03;;;;;;;0.10;0.10;;;15.80;99.90;;;;;;5063146;28;20020;-76
2023/08/13 04:40:30;;;;;;;0.22;0.22;;;16.20;99.90;;;;;;5050699;28;20582;-76
2023/08/13 04:42:57;;;;;;;0.10;0.10;;;16.20;99.90;;;;;;5063233;28;20055;-76
2023/08/13 04:45:25;;;;;;;0.10;0.10;;;16.00;99.90;;;;;;5063298;28;20035;-77
2023/08/13 04:47:52;;;;;;;2.05;1.95;;;16.30;99.90;;;;;;5063675;28;20571;-77
2023/08/13 04:50:22;;;;;;;0.10;0.10;;;16.80;99.90;;;;;;5067174;28;20024;-78
2023/08/13 04:52:48;;;;;;;0.17;0.17;;;16.80;99.90;;;;;;5064222;28;20079;-78
2023/08/13 04:55:15;;;;;;;1.45;1.45;;;17.40;99.90;;;;;;5063557;28;20016;-78
2023/08/13 04:57:41;;;;;;;0.10;0.10;;;;;;;;;;5063770;28;20035;-79
2023/08/13 05:00:10;;;;;;;0.55;0.55;;;17.90;99.90;;;;;;5064095;28;20028;-78
2023/08/13 05:02:37;;;;;;;0.98;0.95;;;17.90;99.90;;;;;;5064760;28;20094;-79
2023/08/13 05:05:04;;;;;;;0.10;0.10;;;18.20;99.90;;;;;;5063496;28;20021;-78
2023/08/13 05:07:31;;;;;;;0.10;0.10;;;18.30;99.90;;;;;;5063139;28;20029;-77
2023/08/13 05:09:57;;;;;;;0.10;0.10;;;18.90;99.90;;;;;;5045428;28;20070;-77
2023/08/13 05:12:24;;;;;;;0.10;0.10;;;18.50;99.90;;;;;;5063395;28;20016;-78
2023/08/13 05:14:50;;;;;;;0.17;0.17;;;18.60;99.90;;;;;;5062308;28;20069;-77
2023/08/13 05:17:21;;;;;;;0.10;0.10;;;19.50;99.90;;;;;;5063393;28;20021;-77
2023/08/13 05:19:49;;;;;;;0.10;0.10;;;18.30;99.90;;;;;;5063724;28;20399;-77
2023/08/13 05:22:16;;;;;;;0.10;0.10;;;18.50;99.90;;;;;;5045816;28;20039;-77
2023/08/13 05:24:43;;;;;;;2.30;1.55;;;18.60;99.90;;;;;;5063445;28;20051;-77
2023/08/13 05:27:09;;;;;;;0.10;0.10;;;18.90;99.90;;;;;;5066979;28;20225;-77
2023/08/13 05:29:36;;;;;;;0.10;0.10;;;18.90;99.90;;;;;;5064376;28;20013;-77
2023/08/13 05:32:02;;;;;;;0.20;0.20;;;18.10;99.90;;;;;;5063965;28;20097;-77
2023/08/13 05:34:29;;;;;;;0.73;0.73;;;18.70;99.90;;;;;;5043966;28;20043;-77
2023/08/13 05:36:55;;;;;;;0.55;0.55;;;18.70;99.90;;;;;;5062437;28;20497;-77
2023/08/13 05:39:22;;;;;;;0.10;0.10;;;18.60;99.90;;;;;;5063288;28;20020;-77
2023/08/13 05:41:48;;;;;;;0.10;0.10;;;17.80;99.90;;;;;;5063768;28;20107;-77
2023/08/13 05:44:15;;;;;;;0.20;0.20;;;18.00;99.90;;;;;;5062915;28;20107;-78
2023/08/13 05:46:41;;;;;;;0.10;0.10;;;17.80;99.90;;;;;;5044551;28;20433;-77
2023/08/13 05:49:07;;;;;;;0.38;0.38;;;17.90;99.90;;;;;;5061464;28;20031;-75
2023/08/13 05:51:33;;;;;;;3.13;2.92;;;18.20;99.90;;;;;;5061317;28;20120;-76
2023/08/13 05:54:00;;;;;;;0.20;0.20;;;18.50;99.90;;;;;;5061590;28;20021;-76
2023/08/13 05:56:26;;;;;;;0.10;0.10;;;18.50;99.90;;;;;;5061282;28;20038;-76
2023/08/13 05:58:52;;;;;;;0.10;0.10;;;18.30;99.90;;;;;;5059755;28;20562;-76
2023/08/13 06:01:18;;;;;;;0.10;0.10;;;18.60;99.90;;;;;;5060588;28;20689;-76
2023/08/13 06:03:44;;;;;;;0.10;0.10;;;19.40;99.90;;;;;;5059421;28;20448;-78
2023/08/13 06:06:10;;;;;;;0.20;0.20;;;19.00;99.90;;;;;;5042133;28;20093;-76
2023/08/13 06:08:37;;;;;;;0.10;0.10;;;16.70;99.90;;;;;;5061807;28;20257;-76
2023/08/13 06:11:04;;;;;;;0.10;0.10;;;17.60;99.90;;;;;;5043555;28;20130;-75
2023/08/13 06:13:30;;;;;;;0.40;0.40;;;18.20;99.90;;;;;;5061294;28;20012;-76
2023/08/13 06:15:57;;;;;;;4.97;1.75;;;18.60;99.90;;;;;;5061958;28;20801;-76
2023/08/13 06:18:24;;;;;;;0.10;0.10;;;18.90;99.90;;;;;;5063652;28;20031;-76
2023/08/13 06:20:51;;;;;;;0.30;0.30;;;19.10;99.90;;;;;;5046719;28;20032;-77
2023/08/13 06:23:19;;;;;;;0.10;0.10;;;19.40;99.90;;;;;;5062503;28;20016;-77
2023/08/13 06:25:45;;;;;;;0.30;0.30;;;19.50;99.90;;;;;;5064089;28;20068;-76
2023/08/13 06:28:12;;;;;;;0.98;0.95;;;19.60;99.90;;;;;;5061617;28;20063;-76
2023/08/13 06:30:39;;;;;;;0.80;0.80;;;20.30;99.90;;;;;;5063488;28;20574;-76
2023/08/13 06:33:05;;;;;;;0.20;0.20;;;19.00;99.90;;;;;;5046183;28;20032;-77
2023/08/13 06:35:32;;;;;;;0.10;0.10;;;18.80;99.90;;;;;;5064249;28;20051;-77
2023/08/13 06:37:58;;;;;;;0.10;0.10;;;18.90;99.90;;;;;;5065361;28;20020;-77
2023/08/13 06:40:25;;;;;;;1.13;1.05;;;20.40;99.90;;;;;;5063766;28;20337;-79
2023/08/13 06:42:52;;;;;;;0.55;0.55;;;19.20;99.90;;;;;;5062857;28;20091;-76
2023/08/13 06:45:21;;;;;;;0.10;0.10;;;19.10;99.90;;;;;;5045016;28;20075;-76
2023/08/13 06:47:48;;;;;;;0.10;0.10;;;19.40;99.90;;;;;;5062815;28;20570;-76
2023/08/13 06:50:14;;;;;;;0.10;0.10;;;18.90;99.90;;;;;;5063534;28;20033;-76
2023/08/13 06:52:41;;;;;;;0.20;0.20;;;19.20;99.90;;;;;;5063985;28;20032;-76
2023/08/13 06:55:08;;;;;;;0.10;0.10;;;19.00;99.90;;;;;;5043954;28;20567;-75
2023/08/13 06:57:35;;;;;;;0.10;0.10;;;19.30;99.90;;;;;;5043031;28;20090;-76
2023/08/13 07:00:03;;;;;;;0.10;0.10;;;20.80;99.90;;;;;;5045727;28;20040;-76
2023/08/13 07:02:28;;;;;;;0.10;0.10;;;19.40;99.90;;;;;;5044807;28;20530;-76
2023/08/13 07:04:54;;;;;;;1.58;1.48;;;19.50;99.90;;;;;;5060297;28;20039;-77
2023/08/13 07:07:20;;;;;;;0.30;0.30;;;19.50;99.90;;;;;;5060949;28;20036;-77
2023/08/13 07:09:47;;;;;;;0.45;0.35;;;19.30;99.90;;;;;;5062004;28;20020;-76
2023/08/13 07:12:14;;;;;;;0.17;0.17;;;19.10;99.90;;;;;;5061739;28;20344;-77
2023/08/13 07:14:40;;;;;;;0.10;0.10;;;19.20;99.90;;;;;;5059655;28;20082;-77
2023/08/13 07:17:07;;;;;;;0.10;0.10;;;16.40;99.90;;;;;;5060147;28;20519;-77
2023/08/13 07:19:33;;;;;;;0.32;0.32;;;19.40;99.90;;;;;;5063473;28;20425;-80
2023/08/13 07:22:00;;;;;;;5.40;1.95;;;19.30;99.90;;;;;;5061176;28;20039;-78
2023/08/13 07:24:26;;;;;;;0.10;0.10;;;16.50;99.90;;;;;;5060634;28;20653;-77
2023/08/13 07:26:52;;;;;;;0.17;0.17;;;19.80;99.90;;;;;;5060679;28;20027;-80
2023/08/13 07:29:19;;;;;;;0.10;0.10;;;19.70;99.90;;;;;;5041760;28;20092;-77
2023/08/13 07:31:45;;;;;;;0.70;0.70;;;19.70;99.90;;;;;;5043409;28;20112;-77
2023/08/13 07:34:12;;;;;;;0.30;0.30;;;19.80;99.90;;;;;;5064177;28;20031;-77
2023/08/13 07:36:39;;;;;;;0.10;0.10;;;19.80;99.90;;;;;;5059919;28;20659;-76
2023/08/13 07:39:09;;;;;;;0.10;0.10;;;19.60;99.90;;;;;;5045280;28;20173;-77
2023/08/13 07:41:36;;;;;;;0.25;0.25;;;19.60;99.90;;;;;;5047279;28;20020;-76
2023/08/13 07:44:02;;;;;;;0.10;0.10;;;19.80;99.90;;;;;;5065138;28;20084;-76
2023/08/13 07:46:28;;;;;;;0.20;0.20;;;19.80;99.90;;;;;;5047169;28;20071;-79
2023/08/13 07:48:54;;;;;;;0.10;0.10;;;19.80;99.90;;;;;;5046634;28;20017;-79
2023/08/13 07:51:22;;;;;;;0.10;0.10;;;19.90;99.90;;;;;;5063628;28;20031;-76
2023/08/13 07:53:49;;;;;;;0.05;0.05;;;21.40;99.90;;;;;;5046084;28;20019;-76
2023/08/13 07:56:15;;;;;;;0.10;0.10;;;20.20;99.90;;;;;;5045839;28;20608;-76
2023/08/13 07:58:42;;;;;;;0.45;0.45;;;20.40;99.90;;;;;;5064904;28;20024;-76
2023/08/13 08:01:08;;;;;;;3.15;2.95;;;;;;;;;;5047628;28;20101;-76
2023/08/13 08:03:35;;;;;;;0.82;0.82;;;20.40;99.90;;;;;;5063583;28;20020;-76
2023/08/13 08:06:03;;;;;;;0.38;0.38;;;20.40;99.90;;;;;;5046446;28;20033;-76
2023/08/13 08:08:30;;;;;;;0.10;0.10;;;20.50;99.90;;;;;;5046351;28;20020;-77
2023/08/13 08:10:56;;;;;;;0.10;0.10;;;20.50;99.90;;;;;;5046544;28;20020;-76
2023/08/13 08:13:23;;;;;;;0.20;0.20;;;20.60;99.90;;;;;;5064771;28;20044;-81
2023/08/13 08:15:49;;;;;;;0.10;0.10;;;20.70;99.90;;;;;;5064536;28;20016;-76
2023/08/13 08:18:16;;;;;;;0.17;0.17;;;20.90;99.90;;;;;;5062804;28;20253;-76
2023/08/13 08:20:42;;;;;;;0.10;0.10;;;21.10;99.90;;;;;;5063563;28;20009;-76
2023/08/13 08:23:09;;;;;;;0.10;0.10;;;21.30;99.90;;;;;;5063486;28;20016;-77
2023/08/13 08:25:35;;;;;;;0.10;0.10;;;21.20;99.90;;;;;;5064014;28;20643;-77
2023/08/13 08:28:01;;;;;;;0.38;0.38;;;21.60;99.90;;;;;;5062123;28;20095;-76
2023/08/13 08:30:28;;;;;;;0.30;0.30;;;21.30;99.90;;;;;;5046021;28;20103;-78
2023/08/13 08:32:54;;;;;;;0.82;0.82;;;21.60;99.90;;;;;;5042859;28;20032;-77
2023/08/13 08:35:20;;;;;;;0.10;0.10;;;21.60;99.90;;;;;;5045901;28;20025;-77
2023/08/13 08:37:47;;;;;;;0.57;0.57;;;21.80;99.90;;;;;;5044024;28;20029;-77
2023/08/13 08:40:13;;;;;;;5.43;2.38;;;21.90;99.90;;;;;;5063249;28;20667;-77
2023/08/13 08:42:41;;;;;;;0.17;0.17;;;22.10;99.90;;;;;;5062927;28;20016;-77
2023/08/13 08:45:09;;;;;;;0.20;0.20;;;20.60;99.90;;;;;;5063718;28;20028;-77
2023/08/13 08:47:37;;;;;;;0.20;0.20;;;22.20;99.90;;;;;;5043956;28;20088;-76
2023/08/13 08:50:04;;;;;;;0.10;0.10;;;22.30;99.90;;;;;;5043576;28;20020;-79
2023/08/13 08:52:34;;;;;;;0.10;0.10;;;22.50;99.90;;;;;;5061353;28;20012;-88
2023/08/13 08:55:02;;;;;;;0.80;0.77;;;22.70;99.90;;;;;;5061296;28;20023;-76
2023/08/13 08:57:28;;;;;;;0.73;0.73;;;22.90;99.90;;;;;;5061536;28;20024;-77
2023/08/13 08:59:54;;;;;;;0.17;0.17;;;23.00;99.90;;;;;;5060920;28;20147;-77
2023/08/13 09:02:20;;;;;;;0.15;0.15;;;22.30;99.90;;;;;;5059367;28;20143;-74
2023/08/13 09:04:46;;;;;;;0.10;0.10;;;23.40;99.90;;;;;;5041714;28;20163;-77
2023/08/13 09:07:12;;;;;;;0.10;0.10;;;;;;;;;;5060244;28;20463;-77
2023/08/13 09:09:43;;;;;;;0.10;0.10;;;23.40;99.90;;;;;;5071844;28;20096;-76
2023/08/13 09:12:09;;;;;;;0.10;0.10;;;23.50;99.70;;;;;;5080241;28;20020;-76
2023/08/13 09:14:35;;;;;;;0.10;0.10;;;23.70;99.20;;;;;;5062807;28;20016;-76
2023/08/13 09:17:01;;;;;;;0.10;0.10;;;23.70;99.90;;;;;;5081609;28;20020;-77
2023/08/13 09:19:28;;;;;;;0.10;0.10;;;24.00;99.10;;;;;;5082405;28;20140;-76
2023/08/13 09:21:56;;;;;;;0.10;0.10;;;24.10;98.50;;;;;;5062679;28;20168;-77
2023/08/13 09:24:38;;;;;;;0.10;0.10;;;24.30;98.50;;;;;;5061591;28;20032;-88
2023/08/13 09:27:06;;;;;;;0.65;0.65;;;24.30;98.30;;;;;;5079534;28;20703;-77
2023/08/13 09:29:33;;;;;;;0.20;0.20;;;24.40;96.70;;;;;;5081160;28;20023;-76
2023/08/13 09:32:01;;;;;;;0.10;0.10;;;24.50;97.30;;;;;;5063136;28;20123;-76
2023/08/13 09:34:27;;;;;;;0.10;0.10;;;24.50;97.10;;;;;;5079667;28;20221;-76
2023/08/13 09:36:54;;;;;;;0.22;0.22;;;24.30;97.10;;;;;;5078975;28;20032;-75
2023/08/13 09:39:22;;;;;;;0.10;0.10;;;24.60;96.80;;;;;;5079257;28;20020;-79
2023/08/13 09:41:50;;;;;;;0.20;0.20;;;25.50;96.70;;;;;;5079788;28;20161;-77
2023/08/13 09:44:19;;;;;;;0.10;0.10;;;24.80;96.60;;;;;;5080204;28;20605;-77
2023/08/13 09:46:51;;;;;;;0.10;0.10;;;25.00;96.20;;;;;;5080242;28;20121;-76
2023/08/13 09:49:17;;;;;;;0.10;0.10;;;25.20;95.70;;;;;;5080805;28;20372;-76
2023/08/13 09:51:46;;;;;;;0.30;0.30;;;25.70;95.70;;;;;;5079763;28;20024;-76
2023/08/13 09:54:22;;;;;;;0.13;0.13;;;25.30;95.50;;;;;;5079492;28;20109;-77
2023/08/13 09:56:57;;;;;;;0.20;0.20;;;25.40;94.10;;;;;;5080025;28;20026;-78
2023/08/13 09:59:24;;;;;;;0.00;0.00;;;25.60;94.00;;;;;;5080681;28;20558;-77
2023/08/13 10:01:52;;;;;;;0.30;0.30;;;25.80;92.40;;;;;;5079196;28;20040;-76
2023/08/13 10:04:18;;;;;;;0.10;0.10;;;25.90;91.30;;;;;;5078444;28;20059;-76
2023/08/13 10:06:46;;;;;;;0.10;0.10;;;25.90;90.90;;;;;;5079666;28;20177;-76
2023/08/13 10:09:13;;;;;;;0.30;0.30;;;26.20;92.30;;;;;;5061496;28;20080;-76
2023/08/13 10:11:38;;;;;;;0.10;0.10;;;26.40;90.50;;;;;;5079130;28;20012;-75
2023/08/13 10:14:04;;;;;;;0.10;0.10;;;26.50;88.50;;;;;;5079549;28;20019;-77
2023/08/13 10:16:33;;;;;;;0.60;0.60;;;26.70;89.10;;;;;;5077868;28;20057;-75
2023/08/13 10:19:00;;;;;;;0.10;0.10;;;26.90;87.10;;;;;;5078397;28;20499;-75
2023/08/13 10:21:33;;;;;;;0.10;0.10;;;27.00;87.50;;;;;;5078929;28;20013;-76
2023/08/13 10:24:00;;;;;;;;;;;27.30;87.80;;;;;;5078865;28;20028;-78
2023/08/13 10:26:26;;;;;;;0.03;0.03;;;27.70;87.20;;;;;;5061583;28;19981;-76
2023/08/13 10:28:55;;;;;;;0.20;0.15;;;26.90;82.00;;;;;;5079883;28;20013;-76
2023/08/13 10:31:29;;;;;;;0.38;0.20;;;28.00;85.10;;;;;;5079823;28;20028;-76
2023/08/13 10:34:05;;;;;;;0.10;0.10;;;28.10;83.50;;;;;;5059687;28;20024;-76
2023/08/13 10:36:54;;;;;;;0.10;0.10;;;28.10;82.00;;;;;;5078592;28;20074;-78
2023/08/13 10:39:43;;;;;;;0.00;0.00;;;28.10;82.00;;;;;;5046616;28;20023;-76
2023/08/13 10:42:27;;;;;;;0.00;0.00;;;28.20;83.50;;;;;;5061730;28;20225;-77
2023/08/13 10:45:04;;;;;;;0.70;0.40;;;28.30;82.60;;;;;;5079539;28;20365;-77
2023/08/13 10:47:48;;;;;;;0.00;0.00;;;28.60;81.20;;;;;;5061052;28;20063;-77
2023/08/13 10:50:41;;;;;;;0.10;0.10;;;27.20;78.60;;;;;;5080152;28;20020;-77
2023/08/13 10:53:19;;;;;;;0.10;0.10;;;29.10;78.10;;;;;;5095349;28;20022;-74
2023/08/13 10:55:59;;;;;;;0.10;0.10;;;28.90;76.90;;;;;;5078643;28;20501;-76
2023/08/13 10:58:31;;;;;;;0.38;0.28;;;28.60;78.20;;;;;;5060833;28;20483;-76
2023/08/13 11:01:11;;;;;;;0.10;0.10;;;28.60;76.60;;;;;;5078729;28;20058;-76
2023/08/13 11:03:48;;;;;;;2.17;0.98;;;28.80;76.70;;;;;;5079362;28;20026;-76
2023/08/13 11:06:15;;;;;;;0.10;0.10;;;29.10;77.10;;;;;;5078968;28;20661;-76
2023/08/13 11:08:46;;;;;;;1.08;0.50;;;29.60;77.40;;;;;;5079340;28;20032;-76
2023/08/13 11:11:16;;;;;;;0.30;0.30;;;29.40;74.90;;;;;;5078689;28;20087;-76
2023/08/13 11:13:42;;;;;;;0.32;0.32;;;29.70;75.70;;;;;;5081332;28;20024;-78
2023/08/13 11:16:09;;;;;;;0.38;0.38;;;29.90;75.90;;;;;;5083452;28;20027;-78
2023/08/13 11:18:35;;;;;;;0.25;0.25;;;29.90;74.00;;;;;;5084279;28;20023;-79
2023/08/13 11:21:01;;;;;;;0.85;0.57;;;30.10;73.70;;;;;;5065473;28;20750;-77
2023/08/13 11:23:28;;;;;;;1.52;1.42;;;30.30;73.50;;;;;;5083611;28;20012;-78
2023/08/13 11:25:55;;;;;;;0.47;0.47;;;30.50;73.70;;;;;;5063909;28;20235;-78
2023/08/13 11:28:25;;;;;;;0.00;0.00;;;30.60;72.40;;;;;;5082939;28;20016;-79
2023/08/13 11:30:54;;;;;;;0.45;0.43;;;30.40;73.90;;;;;;5065213;28;20020;-78
2023/08/13 11:33:20;;;;;;;0.08;0.08;;;30.60;73.10;;;;;;5082517;28;20580;-80
2023/08/13 11:35:47;;;;;;;0.10;0.10;;;30.80;70.50;;;;;;5082255;28;20024;-77
2023/08/13 11:38:13;;;;;;;0.10;0.10;;;30.80;71.70;;;;;;5082737;28;20308;-82
2023/08/13 11:40:39;;;;;;;0.25;0.25;;;30.80;73.10;;;;;;5066202;28;20582;-76
2023/08/13 11:43:10;;;;;;;1.20;1.10;;;31.20;71.00;;;;;;5084058;28;20031;-76
2023/08/13 11:45:37;;;;;;;0.32;0.32;;;31.10;70.40;;;;;;5066000;28;20030;-76
2023/08/13 11:48:15;;;;;;;0.35;0.30;;;31.10;71.20;;;;;;5065984;28;20024;-77
2023/08/13 11:50:46;;;;;;;0.05;0.05;;;31.10;69.40;;;;;;5083346;28;20313;-80
2023/08/13 11:53:15;;;;;;;0.77;0.75;;;30.80;68.20;;;;;;5063524;28;20016;-76
2023/08/13 11:55:49;;;;;;;0.00;0.00;;;31.00;68.50;;;;;;5084894;28;20028;-76
2023/08/13 11:58:19;;;;;;;0.45;0.45;;;31.00;67.90;;;;;;5065711;28;20051;-75
2023/08/13 12:00:48;;;;;;;0.03;0.03;;;31.30;68.50;;;;;;5083194;28;20753;-76
2023/08/13 12:03:15;;;;;;;0.55;0.40;;;31.70;69.30;;;;;;5064931;28;20055;-76
2023/08/13 12:05:42;;;;;;;0.82;0.77;;;32.00;67.60;;;;;;5083533;28;20039;-77
2023/08/13 12:08:09;;;;;;;1.02;0.93;;;31.80;67.80;;;;;;5064427;28;20050;-75
2023/08/13 12:10:36;;;;;;;0.52;0.43;;;32.00;66.00;;;;;;5082987;28;20267;-75
2023/08/13 12:13:04;;;;;;;1.17;0.85;;;32.30;68.30;;;;;;5082919;28;20032;-76
2023/08/13 12:15:31;;;;;;;0.10;0.10;;;32.60;66.40;;;;;;5083162;28;20049;-76
2023/08/13 12:17:58;;;;;;;0.95;0.50;;;32.50;66.30;;;;;;5084575;28;20027;-76
2023/08/13 12:20:24;;;;;;;0.82;0.82;;;32.50;67.40;;;;;;5083663;28;20031;-76
2023/08/13 12:22:51;;;;;;;0.20;0.20;;;32.70;67.00;;;;;;5064490;28;20533;-76
2023/08/13 12:25:17;;;;;;;0.43;0.43;;;33.00;66.50;;;;;;5082083;28;20034;-80
2023/08/13 12:27:43;;;;;;;0.28;0.28;;;33.30;64.00;;;;;;5064529;28;20024;-76
2023/08/13 12:30:10;;;;;;;2.70;2.60;;;33.30;63.90;;;;;;5065217;28;20070;-75
2023/08/13 12:32:37;;;;;;;0.47;0.47;;;33.20;64.60;;;;;;5082944;28;20099;-79
2023/08/13 12:35:04;;;;;;;0.55;0.43;;;33.70;65.10;;;;;;5064506;28;20107;-77
2023/08/13 12:37:31;;;;;;;0.20;0.20;;;34.10;64.10;;;;;;5082062;28;20560;-77
2023/08/13 12:39:57;;;;;;;0.30;0.30;;;34.00;62.40;;;;;;5082384;28;20023;-76
2023/08/13 12:42:26;;;;;;;1.33;1.23;;;34.20;62.10;;;;;;5083266;28;20050;-77
2023/08/13 12:44:54;;;;;;;5.78;1.05;;;34.10;63.00;;;;;;5066696;28;20047;-76
2023/08/13 12:47:20;;;;;;;2.72;0.95;;;34.30;63.30;;;;;;5087336;28;20143;-81
2023/08/13 12:49:47;;;;;;;1.65;0.43;;;34.50;61.80;;;;;;5082596;28;20047;-78
2023/08/13 12:52:13;;;;;;;0.85;0.85;;;34.30;62.60;;;;;;5081907;28;20424;-76